Oneonta, Alabama
Current Conditions -  °F | °C
As of 4:55 PM on Monday 22 Dec 2014 (Local Time) from KGAD Reporting Station
Overcast Overcast  
Wind Chill: 46°   Ceiling: 700
Heat Index: 48°   Visibility: 8mi
Dew Point: 45°   Wind: 6mph
Humidity: 87%   Direction: 80°E
Pressure: 29.84"   Gusts: NA
Location:  33.95°N, 86.47°W
Report Text: KGAD 222255Z 08005KT 8SM OVC007 09/07 A2984 RMK AO1 P0002
Loading
Personal Weather Stations






























Interactive Weather Map New forecast layout! Learn more

10-Day Weather Forecast

Advertisements
Track Severe Weather on mobile